This is the latest recevied weather packets stored in our database for station/object W6ORV. If no packets are shown the sender has not sent any weather packets the latest 10 day(s).
| Time | Temp. | Humidity | Pressure | Rain* | Wind** | Luminosity | Snow |
|---|---|---|---|---|---|---|---|
| 1777824961 | 13.33° C | 77% | 4298.5 hPa | 0 mm | - | 109 W/m² | - |
| 1777824657 | 12.78° C | 77% | 4298.2 hPa | 0 mm | - | 303 W/m² | - |
| 1777824355 | 12.78° C | 78% | 4298.6 hPa | 0 mm | - | 202 W/m² | - |
| 1777824050 | 12.78° C | 78% | 4298.4 hPa | 0 mm | - | 160 W/m² | - |
| 1777823747 | 12.78° C | 78% | 4298.4 hPa | 0 mm | - | 185 W/m² | - |
| 1777823444 | 13.33° C | 77% | 4298.1 hPa | 0 mm | - | 413 W/m² | - |
| 1777823141 | 12.78° C | 80% | 4298.3 hPa | 0 mm | - | 356 W/m² | - |
| 1777822838 | 12.78° C | 80% | 4298.3 hPa | 0 mm | - | 327 W/m² | - |
| 1777822537 | 12.78° C | 80% | 4298 hPa | 0 mm | - | 292 W/m² | - |
| 1777822234 | 12.22° C | 81% | 4298 hPa | 0 mm | - | 309 W/m² | - |
| 1777821931 | 12.22° C | 81% | 4298.1 hPa | 0 mm | - | 294 W/m² | - |
| 1777821629 | 12.22° C | 82% | 4298.2 hPa | 0 mm | - | 279 W/m² | - |
| 1777821327 | 11.67° C | 83% | 4298.3 hPa | 0 mm | - | 265 W/m² | - |
| 1777821024 | 12.22° C | 83% | 4298.3 hPa | 0 mm | - | 238 W/m² | - |
| 1777820720 | 11.67° C | 84% | 4298.1 hPa | 0 mm | - | 206 W/m² | - |
| 1777820416 | 11.67° C | 84% | 4298.2 hPa | 0 mm | - | 211 W/m² | - |
| 1777820114 | 11.67° C | 85% | 4298.1 hPa | 0 mm | - | 147 W/m² | - |
| 1777819811 | 11.67° C | 85% | 4298.1 hPa | 0 mm | - | 170 W/m² | - |
| 1777819509 | 11.67° C | 85% | 4298.2 hPa | 0 mm | - | 147 W/m² | - |
| 1777819206 | 11.11° C | 86% | 4298.1 hPa | 0 mm | - | 121 W/m² | - |
| 1777818902 | 11.11° C | 86% | 4298.1 hPa | 0 mm | - | 102 W/m² | - |
| 1777818598 | 11.11° C | 87% | 4298.1 hPa | 0 mm | - | 97 W/m² | - |
| 1777818296 | 10.56° C | 87% | 4298.2 hPa | 0 mm | - | 90 W/m² | - |
| 1777817992 | 10.56° C | 88% | 4297.9 hPa | 0 mm | - | 91 W/m² | - |
| 1777817690 | 10.56° C | 88% | 4298.1 hPa | 0 mm | - | 80 W/m² | - |
* Rain latest hour (hover to see other rain measurements)
** Current wind speed in m/s (hover to see current wind gust speed)